INFORMACIÓN METAR y TAF
METAR FOR SCTB
ADDS - METARS form results

(1555 UTC 30 May 2020)
Data provider http://aviationweather.gov/metar/data/
 
METAR text: SCTB 301500Z 19002KT 3000 HZ FEW033 BKN066 BKN210 13/07 Q1019
Conditions at: SCTB (EULOGIO SANCHEZ , CL) observed 1500 UTC 30 May 2020
Temperature: 13.0°C (55°F)
Dewpoint: 7.0°C (45°F) [RH = 67%]
Pressure (altimeter): 30.09 inches Hg (1019.0 mb)
Winds: from the S (190 degrees) at 2 MPH (2 knots; 1.0 m/s)
Visibility: 1.86 miles (2.99 km)
Ceiling: 6600 feet AGL
Clouds: few clouds at 3300 feet AGL
broken clouds at 6600 feet AGL
broken clouds at 21000 feet AGL
Weather: HZ  (haze)

 MAPA DE AEROPUERTO

 INFORMACIÓN DE PISTA
Pista 01 Longitud 3280 ft Ancho 98 ft
Elevación 2129 ft Umbral desplazado 0 ft Rumbo de pista 13
Pista 19 Longitud 3280 ft Ancho 98 ft
Elevación 2129 ft Umbral desplazado 552 ft Rumbo de pista 193

 FRECUANCIAS DEL AEROPUERTO
Tipo GND Nombre GND Frecuencia 121.6 MHZ
Tipo TWR Nombre TOBALABA T Frecuencia 118.7 MHZ

 RADIO AYUDAS DEL AEROPUERTO



Powered by Virtual Airlines Manager [v2.6.2]